Create Custom Reports and Graphics: Custom Report

Latest Observations

Map

15 Minute Data

Lake County North

13 Stations

15 Minute Data | America/Los_Angeles
as of 2/29/20 12:48 AM PST
Station Date Time Temp (°F) Dew Pt (°F) RH (%) Wind Spd (mph) Wind Dir (°) Wind Gust (mph) Latest Rain (In) Daily Rain (In) Daily Min Temp (°F) Daily Max Temp (°F)
Upper Lake (UPL) 2/28/20 2300 43.1   1.2 38.4   3.9 83 0.2 NNW | 331 1.4 0.00 0.00 36.4   3.6 73.6   2.7
Scotts Valley (SVL) 2/29/20 0045 36.1   1.1 30.6   5.2 80 0.7 WSW | 251 2.0 0.00 0.00 35.6   1.4 38.5   0.4
High Valley Ridgeline (Brassfield) 2/29/20 0045 49.6   10.8 30.7   2.2 48 7.1 WSW | 247 12.5 0.00 0.00 49.4   10.5 50.5   10.5
Ridgeline Top (Brassfield) 2/29/20 0045 49.6   11.5 - - - - - - - 48.5   12.5 50.1   11.4
Ridgeline Low (Brassfield) 2/29/20 0045 51.7   0.8 - - - - - - - 51.2   0.0 53.0   1.6
High Valley Winery 2/29/20 0045 51.7   11.5 30.8   5.3 45 2.4 WSW | 242 6.4 0.00 0.00 46.0   6.6 52.1   11.5
Kelseyville (KEL) 2/29/20 0045 41.3   0.8 31.2   4.4 65 1.8 S | 172 2.8 0.00 0.00 40.6   0.6 49.5   3.3
Kelseyville Remote 2/29/20 0045 41.3   0.6 28.7   4.2 61 - - - - - 40.6   0.1 45.6   1.6
Kelseyville South (SML) 2/28/20 0915 55.1   3.7 42.0   2.4 61 0.0 NNW | 327 2.1 0.00 0.00 36.0   3.6 55.3   2.7
Bell Hill West (BHR) 2/29/20 0045 41.6   0.1 33.1   4.6 72 3.3 S | 180 4.3 0.00 0.00 41.2   0.1 45.8   3.5
Wight Way 2/29/20 0045 37.8   0.1 31.6   3.9 78 0.6 ESE | 109 2.7 0.00 0.00 37.3   0.0 39.9   1.0
Red Hills (Beckstoffer) 2/29/20 0045 38.6   3.8 29.3   2.1 69 - - - - - 38.2   3.5 40.8   4.7
Red Hills East (2200ft) 2/29/20 0045 49.6   4.0 26.7   10.7 41 3.2 WNW | 290 6.1 0.00 0.00 49.4   4.0 50.5   4.8
Max     51.7 33.1 80 7.1 - 12.5 0.00 0.00 51.2 53.0
Avg     44.4 30.3 62 2.7 - 5.3 0.00 - - -
Min     36.1 26.7 41 0.6 - 2.0 0.00 0.00 35.6 38.5

Latest Observation

9 Stations

15 Minute Data | America/Los_Angeles
as of 2/29/20 12:48 AM PST
Station Date Time Temp (°F) Dew Pt (°F) RH (%) Upper Temp (°F) Wind Spd (mph) Wind Dir (°) Wind Gust (mph) Latest Rain (In) Daily Rain (In) Daily Min Temp (°F) Daily Max Temp (°F)
Diamond D (Middletown) 2/29/20 0045 43.4   0.4 37.7   2.1 80   8 47.1   1.2 2.0 W | 269 3.8   1.1 0.00 0.00 42.9   0.9 45.9   2.1
Bella Vista-Middletown West 2/29/20 0045 43.7   3.3 35.0   3.7 71   22 - - - - - - 42.3   2.2 47.3   3.7
Middletown-South 2/29/20 0045 43.6   0.7 34.6   7.1 70   20 - 1.6 SSW | 200 3.7   0.8 0.00 0.00 43.2   0.2 44.6   0.1
Lower Bohn 2/29/20 0045 41.1   2.8 37.3   0.1 86   10 - 1.2 E | 86 2.7   1.4 0.00 0.00 40.2   2.7 43.8   3.7
Upper Bohn South 2/29/20 0045 47.4   4.3 28.9   1.7 48   4 - 0.5 NW | 314 2.2   3.3 0.00 0.00 46.8   4.4 50.1   2.1
Upper Bohn North 2/29/20 0045 48.5   2.0 34.7   6.8 59   12 - 1.4 SSE | 153 2.9   1.1 0.00 0.00 47.8   1.0 52.3   0.9
Morgan Valley (HSM) 2/29/20 0045 54.4   7.2 21.6   9.8 27   4 - 16.2 NW | 304 22.4   18.2 0.00 0.00 54.2   5.3 55.0   6.8
Mine Pit South 2/28/20 1645 69.4   1.8 38.2   5.1 32   7 - 5.4 WSW | 251 8.8   3.5 0.00 0.01 42.6   0.0 77.4   0.0
Mine Pit North 2/18/20 1315 61.3   2.0 16.6   2.1 17   3 - 2.8 NNE | 19 5.5   12.5 - - 43.1   0.8 62.0   1.9
Max     54.4 37.7 86 - 16.2 - 22.4 0.00 0.00 54.2 55.0
Avg     46.0 32.8 63 - 3.8 - 6.3 0.00 - - -
Min     41.1 21.6 27 - 0.5 - 2.2 0.00 0.00 40.2 43.8